createdAt,value
2022-12-03T00:04:54.345Z,0
2022-12-03T00:14:30.784Z,0
2022-12-03T00:24:07.604Z,0
2022-12-03T00:33:44.189Z,0
2022-12-03T00:43:20.553Z,0
2022-12-03T00:52:57.647Z,0
2022-12-03T01:02:34.141Z,0
2022-12-03T01:12:10.674Z,0
2022-12-03T01:21:47.203Z,0
2022-12-03T01:31:23.885Z,0
2022-12-03T01:41:00.500Z,0
2022-12-03T01:50:37.109Z,0
2022-12-03T02:00:13.805Z,0
2022-12-03T02:09:50.002Z,0
2022-12-03T02:19:26.649Z,0
2022-12-03T02:29:03.578Z,0
2022-12-03T02:38:40.266Z,0
2022-12-03T02:57:53.798Z,0
2022-12-03T03:07:30.968Z,0
2022-12-03T03:17:07.499Z,0
2022-12-03T03:26:45.846Z,0
2022-12-03T03:36:22.984Z,0
2022-12-03T03:45:57.577Z,0
2022-12-03T03:55:34.017Z,0
2022-12-03T04:05:10.553Z,0
2022-12-03T04:14:47.111Z,0
2022-12-03T04:24:23.579Z,0
2022-12-03T04:34:00.131Z,0
2022-12-03T04:53:13.102Z,0
2022-12-03T05:02:49.685Z,0
2022-12-03T05:12:26.165Z,0
2022-12-03T05:22:02.762Z,0
2022-12-03T05:31:39.581Z,0
2022-12-03T05:41:15.998Z,0
2022-12-03T05:50:52.333Z,0
2022-12-03T06:10:05.658Z,0
2022-12-03T06:19:44.036Z,0
2022-12-03T06:29:19.090Z,0
2022-12-03T06:48:32.267Z,0
2022-12-03T06:58:08.990Z,0
2022-12-03T07:07:45.600Z,5.63
2022-12-03T07:17:22.327Z,11.25
2022-12-03T07:26:59.116Z,16.88
2022-12-03T07:46:12.978Z,33.75
2022-12-03T08:05:26.316Z,39.38
2022-12-03T08:24:40.019Z,39.38
2022-12-03T08:43:53.446Z,50.63
2022-12-03T08:53:30.156Z,73.13
2022-12-03T09:03:07.042Z,67.5
2022-12-03T09:12:44.040Z,78.75
2022-12-03T09:22:20.824Z,90
2022-12-03T09:41:34.161Z,118.13
2022-12-03T09:51:11.270Z,151.88
2022-12-03T10:00:48.362Z,129.38
2022-12-03T10:10:25.474Z,140.63
2022-12-03T10:20:02.145Z,140.63
2022-12-03T10:29:38.858Z,146.25
2022-12-03T10:39:15.838Z,157.5
2022-12-03T10:48:52.573Z,163.13
2022-12-03T10:58:29.561Z,163.13
2022-12-03T11:08:05.578Z,163.13
2022-12-03T11:17:42.305Z,174.38
2022-12-03T11:37:01.738Z,151.88
2022-12-03T11:56:09.406Z,140.63
2022-12-03T12:05:46.509Z,157.5
2022-12-03T12:15:23.154Z,163.13
2022-12-03T12:24:59.982Z,140.63
2022-12-03T12:34:36.609Z,157.5
2022-12-03T12:44:13.616Z,157.5
2022-12-03T12:53:50.515Z,163.13
2022-12-03T13:03:27.137Z,135
2022-12-03T13:13:03.014Z,106.88
2022-12-03T13:22:39.349Z,84.38
2022-12-03T13:32:15.443Z,67.5
2022-12-03T13:41:51.874Z,39.38
2022-12-03T13:51:28.086Z,28.13
2022-12-03T14:01:04.721Z,22.5
2022-12-03T14:10:40.702Z,22.5
2022-12-03T14:20:17.374Z,16.88
2022-12-03T14:29:54.153Z,16.88
2022-12-03T14:39:30.192Z,11.25
2022-12-03T14:49:07.146Z,5.63
2022-12-03T14:58:43.589Z,5.63
2022-12-03T15:08:20.263Z,0
2022-12-03T15:17:56.538Z,0
2022-12-03T15:27:32.794Z,0
2022-12-03T15:37:09.828Z,0
2022-12-03T15:46:46.404Z,0
2022-12-03T15:56:23.011Z,0
2022-12-03T16:05:59.208Z,0
2022-12-03T16:15:35.887Z,0
2022-12-03T16:25:12.174Z,0
2022-12-03T16:34:48.918Z,0
2022-12-03T16:44:25.269Z,0
2022-12-03T16:54:01.875Z,0
2022-12-03T17:03:38.477Z,0
2022-12-03T17:13:15.047Z,0
2022-12-03T17:22:51.622Z,0
2022-12-03T17:32:28.169Z,0
2022-12-03T17:42:04.631Z,0
2022-12-03T17:51:43.226Z,0
2022-12-03T18:01:18.249Z,0
2022-12-03T18:10:54.536Z,0
2022-12-03T18:20:30.950Z,0
2022-12-03T18:30:07.471Z,0
2022-12-03T18:39:43.842Z,0
2022-12-03T18:49:20.789Z,0
2022-12-03T18:58:57.319Z,0
2022-12-03T19:08:34.216Z,0
2022-12-03T19:18:10.508Z,0
2022-12-03T19:27:47.094Z,0
2022-12-03T19:37:26.045Z,0
2022-12-03T19:47:03.019Z,0
2022-12-03T19:56:38.274Z,0
2022-12-03T20:06:14.881Z,0
2022-12-03T20:15:51.577Z,0
2022-12-03T20:25:28.136Z,0
2022-12-03T20:35:04.357Z,0
2022-12-03T20:44:41.148Z,0
2022-12-03T20:54:17.437Z,0
2022-12-03T21:03:53.852Z,0
2022-12-03T21:13:32.370Z,0
2022-12-03T21:23:07.536Z,0
2022-12-03T21:32:44.484Z,0
2022-12-03T21:42:35.209Z,0
2022-12-03T21:51:58.524Z,0
2022-12-03T22:01:35.477Z,0
2022-12-03T22:11:12.072Z,0
2022-12-03T22:20:48.626Z,0
2022-12-03T22:30:25.586Z,0
2022-12-03T22:40:02.415Z,0
2022-12-03T22:49:39.292Z,0
2022-12-03T22:59:15.772Z,0
2022-12-03T23:08:52.528Z,0
2022-12-03T23:18:31.505Z,0
2022-12-03T23:28:06.902Z,0
2022-12-03T23:37:43.703Z,0
2022-12-03T23:47:20.177Z,0
2022-12-03T23:56:40.667Z,0
